sensor_id;sensor_type;location;lat;lon;timestamp;P1;durP1;ratioP1;P2;durP2;ratioP2
27275;SDS011;14772;47.398;8.080;2022-12-20T00:01:17;24.80;;;11.13;;
27275;SDS011;14772;47.398;8.080;2022-12-20T00:06:16;21.23;;;10.40;;
27275;SDS011;14772;47.398;8.080;2022-12-20T00:11:14;21.53;;;10.57;;
27275;SDS011;14772;47.398;8.080;2022-12-20T00:16:12;20.50;;;10.23;;
27275;SDS011;14772;47.398;8.080;2022-12-20T00:21:11;19.73;;;9.93;;
27275;SDS011;14772;47.398;8.080;2022-12-20T00:26:10;22.10;;;10.50;;
27275;SDS011;14772;47.398;8.080;2022-12-20T00:31:09;24.33;;;10.87;;
27275;SDS011;14772;47.398;8.080;2022-12-20T00:36:08;20.87;;;11.00;;
27275;SDS011;14772;47.398;8.080;2022-12-20T00:41:07;22.47;;;11.13;;
27275;SDS011;14772;47.398;8.080;2022-12-20T00:46:05;19.83;;;9.17;;
27275;SDS011;14772;47.398;8.080;2022-12-20T00:51:05;20.93;;;9.70;;
27275;SDS011;14772;47.398;8.080;2022-12-20T00:56:04;21.53;;;10.50;;
27275;SDS011;14772;47.398;8.080;2022-12-20T01:01:02;21.20;;;10.20;;
27275;SDS011;14772;47.398;8.080;2022-12-20T01:06:01;21.17;;;9.77;;
27275;SDS011;14772;47.398;8.080;2022-12-20T01:10:59;23.33;;;10.33;;
27275;SDS011;14772;47.398;8.080;2022-12-20T01:16:02;20.43;;;10.07;;
27275;SDS011;14772;47.398;8.080;2022-12-20T01:21:02;21.97;;;9.80;;
27275;SDS011;14772;47.398;8.080;2022-12-20T01:26:02;20.20;;;10.10;;
27275;SDS011;14772;47.398;8.080;2022-12-20T01:31:00;21.10;;;9.93;;
27275;SDS011;14772;47.398;8.080;2022-12-20T01:36:00;18.13;;;8.97;;
27275;SDS011;14772;47.398;8.080;2022-12-20T01:40:59;19.27;;;9.67;;
27275;SDS011;14772;47.398;8.080;2022-12-20T01:45:56;20.53;;;9.77;;
27275;SDS011;14772;47.398;8.080;2022-12-20T01:50:53;19.43;;;9.60;;
27275;SDS011;14772;47.398;8.080;2022-12-20T01:55:51;19.73;;;9.63;;
27275;SDS011;14772;47.398;8.080;2022-12-20T02:00:48;20.17;;;9.53;;
27275;SDS011;14772;47.398;8.080;2022-12-20T02:05:46;19.20;;;9.13;;
27275;SDS011;14772;47.398;8.080;2022-12-20T02:10:47;20.43;;;9.37;;
27275;SDS011;14772;47.398;8.080;2022-12-20T02:15:50;20.07;;;9.80;;
27275;SDS011;14772;47.398;8.080;2022-12-20T02:21:11;20.17;;;8.90;;
27275;SDS011;14772;47.398;8.080;2022-12-20T02:26:17;19.17;;;9.10;;
27275;SDS011;14772;47.398;8.080;2022-12-20T02:31:18;17.93;;;8.80;;
27275;SDS011;14772;47.398;8.080;2022-12-20T02:36:19;18.97;;;9.37;;
27275;SDS011;14772;47.398;8.080;2022-12-20T02:41:17;18.03;;;8.73;;
27275;SDS011;14772;47.398;8.080;2022-12-20T02:46:17;20.00;;;9.40;;
27275;SDS011;14772;47.398;8.080;2022-12-20T02:51:16;19.97;;;8.90;;
27275;SDS011;14772;47.398;8.080;2022-12-20T02:56:18;20.33;;;9.57;;
27275;SDS011;14772;47.398;8.080;2022-12-20T03:01:18;21.10;;;9.73;;
27275;SDS011;14772;47.398;8.080;2022-12-20T03:06:18;22.70;;;8.97;;
27275;SDS011;14772;47.398;8.080;2022-12-20T03:11:15;19.03;;;9.20;;
27275;SDS011;14772;47.398;8.080;2022-12-20T03:16:13;20.70;;;9.53;;
27275;SDS011;14772;47.398;8.080;2022-12-20T03:21:10;19.77;;;9.20;;
27275;SDS011;14772;47.398;8.080;2022-12-20T03:26:08;16.83;;;7.67;;
27275;SDS011;14772;47.398;8.080;2022-12-20T03:31:05;18.70;;;7.77;;
27275;SDS011;14772;47.398;8.080;2022-12-20T03:36:02;17.77;;;7.70;;
27275;SDS011;14772;47.398;8.080;2022-12-20T03:41:00;16.60;;;7.77;;
27275;SDS011;14772;47.398;8.080;2022-12-20T03:45:57;16.90;;;7.30;;
27275;SDS011;14772;47.398;8.080;2022-12-20T03:50:54;16.43;;;7.47;;
27275;SDS011;14772;47.398;8.080;2022-12-20T03:55:52;16.67;;;7.37;;
27275;SDS011;14772;47.398;8.080;2022-12-20T04:00:49;20.00;;;8.17;;
27275;SDS011;14772;47.398;8.080;2022-12-20T04:05:46;17.03;;;7.90;;
27275;SDS011;14772;47.398;8.080;2022-12-20T04:10:43;18.50;;;7.63;;
27275;SDS011;14772;47.398;8.080;2022-12-20T04:15:41;18.17;;;8.40;;
27275;SDS011;14772;47.398;8.080;2022-12-20T04:20:38;20.00;;;7.80;;
27275;SDS011;14772;47.398;8.080;2022-12-20T04:25:35;18.40;;;8.00;;
27275;SDS011;14772;47.398;8.080;2022-12-20T04:30:32;17.53;;;7.80;;
27275;SDS011;14772;47.398;8.080;2022-12-20T04:35:29;19.17;;;8.63;;
27275;SDS011;14772;47.398;8.080;2022-12-20T04:40:27;19.40;;;7.60;;
27275;SDS011;14772;47.398;8.080;2022-12-20T04:45:24;16.87;;;7.33;;
27275;SDS011;14772;47.398;8.080;2022-12-20T04:50:21;17.27;;;7.50;;
27275;SDS011;14772;47.398;8.080;2022-12-20T04:55:18;15.43;;;7.20;;
27275;SDS011;14772;47.398;8.080;2022-12-20T05:00:16;18.90;;;8.13;;
27275;SDS011;14772;47.398;8.080;2022-12-20T05:05:15;22.80;;;8.20;;
27275;SDS011;14772;47.398;8.080;2022-12-20T05:10:12;18.00;;;7.20;;
27275;SDS011;14772;47.398;8.080;2022-12-20T05:15:11;19.50;;;7.93;;
27275;SDS011;14772;47.398;8.080;2022-12-20T05:20:09;17.27;;;7.77;;
27275;SDS011;14772;47.398;8.080;2022-12-20T05:25:08;17.13;;;7.23;;
27275;SDS011;14772;47.398;8.080;2022-12-20T05:30:07;19.40;;;8.07;;
27275;SDS011;14772;47.398;8.080;2022-12-20T05:35:06;17.23;;;7.47;;
27275;SDS011;14772;47.398;8.080;2022-12-20T05:40:05;18.10;;;6.83;;
27275;SDS011;14772;47.398;8.080;2022-12-20T05:45:05;17.47;;;7.20;;
27275;SDS011;14772;47.398;8.080;2022-12-20T05:50:03;16.87;;;7.67;;
27275;SDS011;14772;47.398;8.080;2022-12-20T05:55:03;17.93;;;7.50;;
27275;SDS011;14772;47.398;8.080;2022-12-20T06:00:01;18.30;;;8.03;;
27275;SDS011;14772;47.398;8.080;2022-12-20T06:04:59;18.63;;;7.90;;
27275;SDS011;14772;47.398;8.080;2022-12-20T06:09:56;16.77;;;7.90;;
27275;SDS011;14772;47.398;8.080;2022-12-20T06:14:54;18.33;;;7.80;;
27275;SDS011;14772;47.398;8.080;2022-12-20T06:19:51;22.23;;;8.53;;
27275;SDS011;14772;47.398;8.080;2022-12-20T06:24:48;17.30;;;8.40;;
27275;SDS011;14772;47.398;8.080;2022-12-20T06:29:45;19.23;;;8.70;;
27275;SDS011;14772;47.398;8.080;2022-12-20T06:34:43;18.50;;;8.13;;
27275;SDS011;14772;47.398;8.080;2022-12-20T06:39:41;17.63;;;8.07;;
27275;SDS011;14772;47.398;8.080;2022-12-20T06:44:38;20.80;;;8.67;;
27275;SDS011;14772;47.398;8.080;2022-12-20T06:49:36;17.47;;;7.87;;
27275;SDS011;14772;47.398;8.080;2022-12-20T06:54:33;19.17;;;9.00;;
27275;SDS011;14772;47.398;8.080;2022-12-20T06:59:30;17.60;;;7.67;;
27275;SDS011;14772;47.398;8.080;2022-12-20T07:04:27;17.70;;;9.07;;
27275;SDS011;14772;47.398;8.080;2022-12-20T07:09:24;18.50;;;8.57;;
27275;SDS011;14772;47.398;8.080;2022-12-20T07:14:22;19.23;;;8.47;;
27275;SDS011;14772;47.398;8.080;2022-12-20T07:19:19;20.60;;;8.45;;
27275;SDS011;14772;47.398;8.080;2022-12-20T07:24:16;20.53;;;9.23;;
27275;SDS011;14772;47.398;8.080;2022-12-20T07:29:13;17.57;;;8.50;;
27275;SDS011;14772;47.398;8.080;2022-12-20T07:34:11;19.07;;;8.07;;
27275;SDS011;14772;47.398;8.080;2022-12-20T07:39:08;17.87;;;8.30;;
27275;SDS011;14772;47.398;8.080;2022-12-20T07:44:05;17.60;;;8.23;;
27275;SDS011;14772;47.398;8.080;2022-12-20T07:49:02;19.43;;;9.03;;
27275;SDS011;14772;47.398;8.080;2022-12-20T07:54:02;23.90;;;10.67;;
27275;SDS011;14772;47.398;8.080;2022-12-20T07:59:01;20.60;;;9.10;;
27275;SDS011;14772;47.398;8.080;2022-12-20T08:04:01;22.67;;;9.73;;
27275;SDS011;14772;47.398;8.080;2022-12-20T08:09:01;21.63;;;9.10;;
27275;SDS011;14772;47.398;8.080;2022-12-20T08:13:59;22.77;;;9.73;;
27275;SDS011;14772;47.398;8.080;2022-12-20T08:18:57;25.40;;;10.37;;
27275;SDS011;14772;47.398;8.080;2022-12-20T08:23:54;21.07;;;8.87;;
27275;SDS011;14772;47.398;8.080;2022-12-20T08:28:52;17.73;;;8.87;;
27275;SDS011;14772;47.398;8.080;2022-12-20T08:33:49;18.77;;;8.50;;
27275;SDS011;14772;47.398;8.080;2022-12-20T08:38:49;19.80;;;9.30;;
27275;SDS011;14772;47.398;8.080;2022-12-20T08:43:47;18.40;;;8.60;;
27275;SDS011;14772;47.398;8.080;2022-12-20T08:48:44;19.53;;;8.60;;
27275;SDS011;14772;47.398;8.080;2022-12-20T08:53:41;19.47;;;8.77;;
27275;SDS011;14772;47.398;8.080;2022-12-20T08:58:39;20.27;;;8.43;;
27275;SDS011;14772;47.398;8.080;2022-12-20T09:03:37;18.43;;;8.60;;
27275;SDS011;14772;47.398;8.080;2022-12-20T09:08:34;19.97;;;9.33;;
27275;SDS011;14772;47.398;8.080;2022-12-20T09:13:33;21.10;;;9.37;;
27275;SDS011;14772;47.398;8.080;2022-12-20T09:18:30;18.83;;;9.10;;
27275;SDS011;14772;47.398;8.080;2022-12-20T09:23:28;18.43;;;8.83;;
27275;SDS011;14772;47.398;8.080;2022-12-20T09:28:27;20.20;;;9.20;;
27275;SDS011;14772;47.398;8.080;2022-12-20T09:33:24;22.70;;;9.43;;
27275;SDS011;14772;47.398;8.080;2022-12-20T09:38:21;18.40;;;8.77;;
27275;SDS011;14772;47.398;8.080;2022-12-20T09:43:19;21.60;;;9.40;;
27275;SDS011;14772;47.398;8.080;2022-12-20T09:48:18;19.30;;;8.47;;
27275;SDS011;14772;47.398;8.080;2022-12-20T09:53:20;19.53;;;8.50;;
27275;SDS011;14772;47.398;8.080;2022-12-20T09:58:24;16.20;;;7.87;;
27275;SDS011;14772;47.398;8.080;2022-12-20T10:03:32;18.30;;;8.07;;
27275;SDS011;14772;47.398;8.080;2022-12-20T10:08:41;17.40;;;7.87;;
27275;SDS011;14772;47.398;8.080;2022-12-20T10:13:45;15.83;;;7.07;;
27275;SDS011;14772;47.398;8.080;2022-12-20T10:18:50;16.70;;;7.10;;
27275;SDS011;14772;47.398;8.080;2022-12-20T10:23:53;16.47;;;7.50;;
27275;SDS011;14772;47.398;8.080;2022-12-20T10:28:53;16.27;;;7.67;;
27275;SDS011;14772;47.398;8.080;2022-12-20T10:33:50;17.03;;;8.37;;
27275;SDS011;14772;47.398;8.080;2022-12-20T10:38:48;17.20;;;8.23;;
27275;SDS011;14772;47.398;8.080;2022-12-20T10:43:48;18.70;;;8.50;;
27275;SDS011;14772;47.398;8.080;2022-12-20T10:48:48;18.23;;;8.57;;
27275;SDS011;14772;47.398;8.080;2022-12-20T10:53:53;18.73;;;8.50;;
27275;SDS011;14772;47.398;8.080;2022-12-20T10:58:56;17.53;;;8.10;;
27275;SDS011;14772;47.398;8.080;2022-12-20T11:03:56;16.10;;;7.80;;
27275;SDS011;14772;47.398;8.080;2022-12-20T11:09:10;19.60;;;7.73;;
27275;SDS011;14772;47.398;8.080;2022-12-20T11:14:13;24.33;;;8.20;;
27275;SDS011;14772;47.398;8.080;2022-12-20T11:19:19;15.43;;;6.77;;
27275;SDS011;14772;47.398;8.080;2022-12-20T11:24:40;14.97;;;6.83;;
27275;SDS011;14772;47.398;8.080;2022-12-20T11:29:48;15.60;;;7.20;;
27275;SDS011;14772;47.398;8.080;2022-12-20T11:34:51;16.57;;;7.50;;
27275;SDS011;14772;47.398;8.080;2022-12-20T11:39:57;17.63;;;7.70;;
27275;SDS011;14772;47.398;8.080;2022-12-20T11:45:11;16.77;;;8.13;;
27275;SDS011;14772;47.398;8.080;2022-12-20T11:50:16;16.53;;;7.77;;
27275;SDS011;14772;47.398;8.080;2022-12-20T11:55:21;19.50;;;8.23;;
27275;SDS011;14772;47.398;8.080;2022-12-20T12:00:21;16.20;;;7.40;;
27275;SDS011;14772;47.398;8.080;2022-12-20T12:05:20;16.33;;;6.87;;
27275;SDS011;14772;47.398;8.080;2022-12-20T12:10:21;15.60;;;6.90;;
27275;SDS011;14772;47.398;8.080;2022-12-20T12:15:21;15.03;;;7.00;;
27275;SDS011;14772;47.398;8.080;2022-12-20T12:20:24;15.47;;;7.13;;
27275;SDS011;14772;47.398;8.080;2022-12-20T12:25:25;15.90;;;7.37;;
27275;SDS011;14772;47.398;8.080;2022-12-20T12:30:22;16.00;;;7.63;;
27275;SDS011;14772;47.398;8.080;2022-12-20T12:35:29;21.27;;;8.90;;
27275;SDS011;14772;47.398;8.080;2022-12-20T12:40:51;17.97;;;8.13;;
27275;SDS011;14772;47.398;8.080;2022-12-20T12:45:55;16.23;;;7.70;;
27275;SDS011;14772;47.398;8.080;2022-12-20T12:50:55;18.53;;;7.20;;
27275;SDS011;14772;47.398;8.080;2022-12-20T12:55:53;17.47;;;6.80;;
27275;SDS011;14772;47.398;8.080;2022-12-20T13:00:52;17.27;;;6.60;;
27275;SDS011;14772;47.398;8.080;2022-12-20T13:05:50;15.20;;;6.47;;
27275;SDS011;14772;47.398;8.080;2022-12-20T13:16:11;14.13;;;6.20;;
27275;SDS011;14772;47.398;8.080;2022-12-20T13:21:35;14.77;;;5.80;;
27275;SDS011;14772;47.398;8.080;2022-12-20T13:26:47;15.93;;;5.93;;
27275;SDS011;14772;47.398;8.080;2022-12-20T13:31:46;18.53;;;6.43;;
27275;SDS011;14772;47.398;8.080;2022-12-20T13:36:44;14.97;;;6.17;;
27275;SDS011;14772;47.398;8.080;2022-12-20T13:41:43;16.07;;;6.07;;
27275;SDS011;14772;47.398;8.080;2022-12-20T13:46:46;13.73;;;5.80;;
27275;SDS011;14772;47.398;8.080;2022-12-20T13:51:45;14.37;;;6.47;;
27275;SDS011;14772;47.398;8.080;2022-12-20T13:56:43;14.53;;;6.00;;
27275;SDS011;14772;47.398;8.080;2022-12-20T14:01:47;15.50;;;6.00;;
27275;SDS011;14772;47.398;8.080;2022-12-20T14:06:49;18.40;;;5.70;;
27275;SDS011;14772;47.398;8.080;2022-12-20T14:11:48;13.63;;;5.47;;
27275;SDS011;14772;47.398;8.080;2022-12-20T14:16:45;13.33;;;5.50;;
27275;SDS011;14772;47.398;8.080;2022-12-20T14:21:42;14.67;;;5.87;;
27275;SDS011;14772;47.398;8.080;2022-12-20T14:26:41;26.97;;;7.20;;
27275;SDS011;14772;47.398;8.080;2022-12-20T14:31:41;13.80;;;5.93;;
27275;SDS011;14772;47.398;8.080;2022-12-20T14:36:40;15.83;;;5.60;;
27275;SDS011;14772;47.398;8.080;2022-12-20T14:41:39;15.03;;;5.53;;
27275;SDS011;14772;47.398;8.080;2022-12-20T14:46:39;13.63;;;5.87;;
27275;SDS011;14772;47.398;8.080;2022-12-20T14:51:38;15.57;;;5.43;;
27275;SDS011;14772;47.398;8.080;2022-12-20T14:56:35;14.90;;;5.50;;
27275;SDS011;14772;47.398;8.080;2022-12-20T15:01:32;15.37;;;5.70;;
27275;SDS011;14772;47.398;8.080;2022-12-20T15:06:31;23.40;;;5.87;;
27275;SDS011;14772;47.398;8.080;2022-12-20T15:11:31;15.10;;;5.97;;
27275;SDS011;14772;47.398;8.080;2022-12-20T15:16:31;16.60;;;6.37;;
27275;SDS011;14772;47.398;8.080;2022-12-20T15:21:29;16.07;;;6.47;;
27275;SDS011;14772;47.398;8.080;2022-12-20T15:26:28;16.80;;;6.10;;
27275;SDS011;14772;47.398;8.080;2022-12-20T15:31:26;18.47;;;6.30;;
27275;SDS011;14772;47.398;8.080;2022-12-20T15:36:25;16.77;;;7.10;;
27275;SDS011;14772;47.398;8.080;2022-12-20T15:41:24;16.33;;;5.73;;
27275;SDS011;14772;47.398;8.080;2022-12-20T15:46:24;14.07;;;5.70;;
27275;SDS011;14772;47.398;8.080;2022-12-20T15:51:23;17.67;;;7.13;;
27275;SDS011;14772;47.398;8.080;2022-12-20T15:56:24;16.23;;;7.17;;
27275;SDS011;14772;47.398;8.080;2022-12-20T16:01:24;18.33;;;6.77;;
27275;SDS011;14772;47.398;8.080;2022-12-20T16:06:23;18.53;;;7.37;;
27275;SDS011;14772;47.398;8.080;2022-12-20T16:11:21;17.47;;;7.50;;
27275;SDS011;14772;47.398;8.080;2022-12-20T16:16:21;19.63;;;9.47;;
27275;SDS011;14772;47.398;8.080;2022-12-20T16:21:20;29.67;;;16.47;;
27275;SDS011;14772;47.398;8.080;2022-12-20T16:26:19;30.00;;;15.37;;
27275;SDS011;14772;47.398;8.080;2022-12-20T16:31:20;22.53;;;11.37;;
27275;SDS011;14772;47.398;8.080;2022-12-20T16:36:19;21.30;;;10.43;;
27275;SDS011;14772;47.398;8.080;2022-12-20T16:41:17;20.43;;;9.63;;
27275;SDS011;14772;47.398;8.080;2022-12-20T16:46:17;19.50;;;9.40;;
27275;SDS011;14772;47.398;8.080;2022-12-20T16:51:24;19.30;;;7.73;;
27275;SDS011;14772;47.398;8.080;2022-12-20T16:56:23;14.97;;;6.93;;
27275;SDS011;14772;47.398;8.080;2022-12-20T17:01:20;17.73;;;7.47;;
27275;SDS011;14772;47.398;8.080;2022-12-20T17:06:19;19.43;;;8.57;;
27275;SDS011;14772;47.398;8.080;2022-12-20T17:11:18;19.20;;;9.27;;
27275;SDS011;14772;47.398;8.080;2022-12-20T17:16:16;18.90;;;8.23;;
27275;SDS011;14772;47.398;8.080;2022-12-20T17:21:19;20.40;;;9.93;;
27275;SDS011;14772;47.398;8.080;2022-12-20T17:26:20;19.23;;;8.77;;
27275;SDS011;14772;47.398;8.080;2022-12-20T17:31:24;22.17;;;11.00;;
27275;SDS011;14772;47.398;8.080;2022-12-20T17:36:23;20.07;;;10.50;;
27275;SDS011;14772;47.398;8.080;2022-12-20T17:41:21;21.97;;;10.30;;
27275;SDS011;14772;47.398;8.080;2022-12-20T17:46:20;21.53;;;10.57;;
27275;SDS011;14772;47.398;8.080;2022-12-20T17:51:19;20.07;;;9.00;;
27275;SDS011;14772;47.398;8.080;2022-12-20T17:56:20;21.43;;;10.57;;
27275;SDS011;14772;47.398;8.080;2022-12-20T18:01:18;19.27;;;9.90;;
27275;SDS011;14772;47.398;8.080;2022-12-20T18:06:17;19.43;;;9.17;;
27275;SDS011;14772;47.398;8.080;2022-12-20T18:11:15;23.17;;;10.07;;
27275;SDS011;14772;47.398;8.080;2022-12-20T18:16:13;23.50;;;9.40;;
27275;SDS011;14772;47.398;8.080;2022-12-20T18:21:13;21.87;;;10.20;;
27275;SDS011;14772;47.398;8.080;2022-12-20T18:26:12;21.63;;;11.03;;
27275;SDS011;14772;47.398;8.080;2022-12-20T18:31:12;26.63;;;11.70;;
27275;SDS011;14772;47.398;8.080;2022-12-20T18:36:12;17.80;;;8.70;;
27275;SDS011;14772;47.398;8.080;2022-12-20T18:41:12;19.40;;;9.17;;
27275;SDS011;14772;47.398;8.080;2022-12-20T18:46:11;19.10;;;11.10;;
27275;SDS011;14772;47.398;8.080;2022-12-20T18:51:10;19.40;;;9.50;;
27275;SDS011;14772;47.398;8.080;2022-12-20T18:56:09;18.63;;;9.40;;
27275;SDS011;14772;47.398;8.080;2022-12-20T19:01:10;19.10;;;9.27;;
27275;SDS011;14772;47.398;8.080;2022-12-20T19:06:08;20.57;;;10.10;;
27275;SDS011;14772;47.398;8.080;2022-12-20T19:11:06;19.37;;;9.47;;
27275;SDS011;14772;47.398;8.080;2022-12-20T19:16:06;21.80;;;8.80;;
27275;SDS011;14772;47.398;8.080;2022-12-20T19:21:06;20.33;;;9.20;;
27275;SDS011;14772;47.398;8.080;2022-12-20T19:26:06;20.50;;;9.53;;
27275;SDS011;14772;47.398;8.080;2022-12-20T19:31:06;22.27;;;9.80;;
27275;SDS011;14772;47.398;8.080;2022-12-20T19:36:08;21.10;;;9.90;;
27275;SDS011;14772;47.398;8.080;2022-12-20T19:41:07;23.47;;;10.57;;
27275;SDS011;14772;47.398;8.080;2022-12-20T19:46:04;17.00;;;7.77;;
27275;SDS011;14772;47.398;8.080;2022-12-20T19:51:02;14.90;;;6.90;;
27275;SDS011;14772;47.398;8.080;2022-12-20T19:56:01;17.83;;;8.23;;
27275;SDS011;14772;47.398;8.080;2022-12-20T20:00:58;21.83;;;9.93;;
27275;SDS011;14772;47.398;8.080;2022-12-20T20:05:55;21.47;;;10.23;;
27275;SDS011;14772;47.398;8.080;2022-12-20T20:10:53;22.87;;;10.67;;
27275;SDS011;14772;47.398;8.080;2022-12-20T20:15:52;24.87;;;12.23;;
27275;SDS011;14772;47.398;8.080;2022-12-20T20:20:50;21.33;;;11.20;;
27275;SDS011;14772;47.398;8.080;2022-12-20T20:25:48;20.60;;;9.13;;
27275;SDS011;14772;47.398;8.080;2022-12-20T20:30:47;20.60;;;9.07;;
27275;SDS011;14772;47.398;8.080;2022-12-20T20:35:52;19.83;;;8.80;;
27275;SDS011;14772;47.398;8.080;2022-12-20T20:40:50;19.47;;;8.60;;
27275;SDS011;14772;47.398;8.080;2022-12-20T20:45:47;19.13;;;8.13;;
27275;SDS011;14772;47.398;8.080;2022-12-20T20:50:45;20.03;;;9.23;;
27275;SDS011;14772;47.398;8.080;2022-12-20T20:55:42;17.87;;;8.80;;
27275;SDS011;14772;47.398;8.080;2022-12-20T21:00:39;17.87;;;9.03;;
27275;SDS011;14772;47.398;8.080;2022-12-20T21:05:36;21.10;;;9.03;;
27275;SDS011;14772;47.398;8.080;2022-12-20T21:10:34;17.77;;;8.40;;
27275;SDS011;14772;47.398;8.080;2022-12-20T21:15:31;18.47;;;8.10;;
27275;SDS011;14772;47.398;8.080;2022-12-20T21:20:29;20.97;;;9.33;;
27275;SDS011;14772;47.398;8.080;2022-12-20T21:25:26;20.13;;;9.47;;
27275;SDS011;14772;47.398;8.080;2022-12-20T21:30:24;16.90;;;7.77;;
27275;SDS011;14772;47.398;8.080;2022-12-20T21:35:21;18.40;;;8.90;;
27275;SDS011;14772;47.398;8.080;2022-12-20T21:40:18;19.67;;;9.27;;
27275;SDS011;14772;47.398;8.080;2022-12-20T21:45:15;19.27;;;9.23;;
27275;SDS011;14772;47.398;8.080;2022-12-20T21:50:13;20.57;;;8.50;;
27275;SDS011;14772;47.398;8.080;2022-12-20T21:55:10;18.27;;;8.43;;
27275;SDS011;14772;47.398;8.080;2022-12-20T22:00:08;18.73;;;8.43;;
27275;SDS011;14772;47.398;8.080;2022-12-20T22:05:07;18.67;;;7.80;;
27275;SDS011;14772;47.398;8.080;2022-12-20T22:10:06;17.30;;;8.07;;
27275;SDS011;14772;47.398;8.080;2022-12-20T22:15:05;17.13;;;7.97;;
27275;SDS011;14772;47.398;8.080;2022-12-20T22:20:05;20.30;;;8.97;;
27275;SDS011;14772;47.398;8.080;2022-12-20T22:25:04;19.77;;;9.40;;
27275;SDS011;14772;47.398;8.080;2022-12-20T22:30:02;19.23;;;9.40;;
27275;SDS011;14772;47.398;8.080;2022-12-20T22:35:00;16.93;;;7.63;;
27275;SDS011;14772;47.398;8.080;2022-12-20T22:39:57;17.13;;;8.00;;
27275;SDS011;14772;47.398;8.080;2022-12-20T22:44:54;19.73;;;10.73;;
27275;SDS011;14772;47.398;8.080;2022-12-20T22:49:52;18.47;;;8.17;;
27275;SDS011;14772;47.398;8.080;2022-12-20T22:54:49;16.13;;;7.60;;
27275;SDS011;14772;47.398;8.080;2022-12-20T22:59:46;16.07;;;7.53;;
27275;SDS011;14772;47.398;8.080;2022-12-20T23:04:43;14.87;;;6.97;;
27275;SDS011;14772;47.398;8.080;2022-12-20T23:09:41;16.60;;;7.50;;
27275;SDS011;14772;47.398;8.080;2022-12-20T23:14:38;15.33;;;7.33;;
27275;SDS011;14772;47.398;8.080;2022-12-20T23:19:35;16.77;;;7.30;;
27275;SDS011;14772;47.398;8.080;2022-12-20T23:24:33;16.07;;;7.20;;
27275;SDS011;14772;47.398;8.080;2022-12-20T23:29:30;17.03;;;7.17;;
27275;SDS011;14772;47.398;8.080;2022-12-20T23:34:28;14.73;;;6.50;;
27275;SDS011;14772;47.398;8.080;2022-12-20T23:39:25;16.07;;;6.80;;
27275;SDS011;14772;47.398;8.080;2022-12-20T23:44:22;14.87;;;6.70;;
27275;SDS011;14772;47.398;8.080;2022-12-20T23:49:19;16.33;;;7.50;;
27275;SDS011;14772;47.398;8.080;2022-12-20T23:54:17;15.27;;;6.87;;
27275;SDS011;14772;47.398;8.080;2022-12-20T23:59:14;14.37;;;6.43;;
